EZY186X EGPH-EGAA
Flight info
| Callsign | EZY186X |
|---|---|
| Flight time | 0h 30m |
| Altitude | 22000 |
| Route | GOSAM P600 TRN/N0359F240 P600 BLACA DCT BELZU |
| Aircraft | A319/M-SDE2E3FGIJ1RWXYZ/LB1 |
Departure
| Time | 2026-04-20 12:48 |
|---|---|
| Airport | Edinburgh Airport (EGPH) |
Arrival
| Time | 2026-04-20 13:18 |
|---|---|
| Airport | Belfast International Airport (EGAA) |
| Time | Latitude | Longitude | Altitude | Speed | Heading |
|---|---|---|---|---|---|
| 2026-04-20 12:28 | 55.94702 | -3.36603 | 117 ft | 0 kts | 89° |
| 2026-04-20 12:38 | 55.94702 | -3.36628 | 112 ft | 4 kts | 89° |
| 2026-04-20 12:38 | 55.94702 | -3.36670 | 113 ft | 2 kts | 89° |
| 2026-04-20 12:38 | 55.94698 | -3.36712 | 112 ft | 4 kts | 54° |
| 2026-04-20 12:38 | 55.94679 | -3.36735 | 112 ft | 4 kts | 3° |
| 2026-04-20 12:39 | 55.94672 | -3.36735 | 112 ft | 0 kts | 359° |
| 2026-04-20 12:41 | 55.94673 | -3.36735 | 112 ft | 1 kts | 359° |
| 2026-04-20 12:41 | 55.94688 | -3.36736 | 114 ft | 4 kts | 359° |
| 2026-04-20 12:41 | 55.94723 | -3.36736 | 115 ft | 5 kts | 1° |
| 2026-04-20 12:42 | 55.94749 | -3.36742 | 116 ft | 3 kts | 343° |
| 2026-04-20 12:42 | 55.94768 | -3.36762 | 114 ft | 4 kts | 328° |
| 2026-04-20 12:42 | 55.94804 | -3.36777 | 116 ft | 6 kts | 358° |
| 2026-04-20 12:42 | 55.94840 | -3.36778 | 116 ft | 4 kts | 359° |
| 2026-04-20 12:43 | 55.94865 | -3.36780 | 116 ft | 3 kts | 354° |
| 2026-04-20 12:43 | 55.94905 | -3.36811 | 114 ft | 9 kts | 328° |
| 2026-04-20 12:43 | 55.94919 | -3.36919 | 114 ft | 12 kts | 239° |
| 2026-04-20 12:43 | 55.94872 | -3.37056 | 113 ft | 14 kts | 239° |
| 2026-04-20 12:44 | 55.94819 | -3.37211 | 116 ft | 14 kts | 239° |
| 2026-04-20 12:44 | 55.94762 | -3.37378 | 113 ft | 17 kts | 238° |
| 2026-04-20 12:44 | 55.94697 | -3.37572 | 115 ft | 16 kts | 239° |
| 2026-04-20 12:44 | 55.94632 | -3.37761 | 115 ft | 19 kts | 239° |
| 2026-04-20 12:45 | 55.94561 | -3.37973 | 113 ft | 19 kts | 239° |
| 2026-04-20 12:45 | 55.94491 | -3.38178 | 116 ft | 17 kts | 239° |
| 2026-04-20 12:45 | 55.94424 | -3.38374 | 115 ft | 20 kts | 239° |
| 2026-04-20 12:45 | 55.94363 | -3.38555 | 114 ft | 16 kts | 238° |
| 2026-04-20 12:46 | 55.94316 | -3.38694 | 114 ft | 10 kts | 238° |
| 2026-04-20 12:46 | 55.94278 | -3.38808 | 115 ft | 9 kts | 248° |
| 2026-04-20 12:46 | 55.94312 | -3.38893 | 114 ft | 10 kts | 330° |
| 2026-04-20 12:46 | 55.94372 | -3.38959 | 114 ft | 9 kts | 328° |
| 2026-04-20 12:47 | 55.94421 | -3.38958 | 113 ft | 8 kts | 60° |
| 2026-04-20 12:47 | 55.94423 | -3.38951 | 114 ft | 0 kts | 60° |
| 2026-04-20 12:47 | 55.94425 | -3.38943 | 114 ft | 10 kts | 60° |
| 2026-04-20 12:47 | 55.94626 | -3.38351 | 113 ft | 98 kts | 58° |
| 2026-04-20 12:48 | 55.95092 | -3.36973 | 276 ft | 145 kts | 59° |
| 2026-04-20 12:48 | 55.95594 | -3.35462 | 1124 ft | 140 kts | 59° |
| 2026-04-20 12:48 | 55.96154 | -3.33983 | 1780 ft | 155 kts | 48° |
| 2026-04-20 12:48 | 55.97018 | -3.32607 | 2297 ft | 178 kts | 43° |
| 2026-04-20 12:49 | 55.97992 | -3.31046 | 2861 ft | 198 kts | 43° |
| 2026-04-20 12:49 | 55.99088 | -3.29300 | 3366 ft | 225 kts | 41° |
| 2026-04-20 12:49 | 56.00571 | -3.28028 | 3951 ft | 255 kts | 8° |
| 2026-04-20 12:49 | 56.02325 | -3.28649 | 4885 ft | 267 kts | 330° |
| 2026-04-20 12:50 | 56.03578 | -3.30917 | 5685 ft | 257 kts | 296° |
| 2026-04-20 12:50 | 56.03875 | -3.33946 | 6238 ft | 249 kts | 262° |
| 2026-04-20 12:50 | 56.03453 | -3.36942 | 7279 ft | 249 kts | 249° |
| 2026-04-20 12:50 | 56.02850 | -3.39863 | 8328 ft | 253 kts | 248° |
| 2026-04-20 12:51 | 56.02223 | -3.42858 | 9303 ft | 261 kts | 249° |
| 2026-04-20 12:51 | 56.01622 | -3.45977 | 10247 ft | 271 kts | 251° |
| 2026-04-20 12:51 | 56.01036 | -3.49341 | 10736 ft | 296 kts | 253° |
| 2026-04-20 12:51 | 56.00452 | -3.53025 | 11221 ft | 319 kts | 255° |
| 2026-04-20 12:52 | 55.99874 | -3.56917 | 12037 ft | 328 kts | 256° |
| 2026-04-20 12:52 | 55.99305 | -3.60900 | 12993 ft | 334 kts | 256° |
| 2026-04-20 12:52 | 55.98734 | -3.64961 | 13893 ft | 339 kts | 256° |
| 2026-04-20 12:52 | 55.98157 | -3.69066 | 14760 ft | 343 kts | 256° |
| 2026-04-20 12:53 | 55.97568 | -3.73212 | 15621 ft | 346 kts | 256° |
| 2026-04-20 12:53 | 55.96970 | -3.77378 | 16461 ft | 349 kts | 256° |
| 2026-04-20 12:53 | 55.96362 | -3.81590 | 17297 ft | 352 kts | 256° |
| 2026-04-20 12:53 | 55.95745 | -3.85845 | 18124 ft | 356 kts | 256° |
| 2026-04-20 12:54 | 55.95118 | -3.90126 | 18911 ft | 359 kts | 256° |
| 2026-04-20 12:54 | 55.94484 | -3.94450 | 19653 ft | 360 kts | 256° |
| 2026-04-20 12:54 | 55.93706 | -3.98705 | 20375 ft | 365 kts | 247° |
| 2026-04-20 12:54 | 55.92326 | -4.02521 | 20887 ft | 370 kts | 230° |
| 2026-04-20 12:55 | 55.90368 | -4.05532 | 21420 ft | 375 kts | 217° |
| 2026-04-20 12:55 | 55.88252 | -4.08200 | 21737 ft | 378 kts | 217° |
| 2026-04-20 12:55 | 55.86799 | -4.10025 | 21920 ft | 379 kts | 217° |
| 2026-04-20 12:55 | 55.83942 | -4.13621 | 22254 ft | 381 kts | 217° |
| 2026-04-20 12:56 | 55.81796 | -4.16328 | 22321 ft | 371 kts | 217° |
| 2026-04-20 12:56 | 55.79737 | -4.18927 | 22325 ft | 355 kts | 218° |
| 2026-04-20 12:56 | 55.77742 | -4.21442 | 22326 ft | 350 kts | 217° |
| 2026-04-20 12:56 | 55.75759 | -4.23921 | 22326 ft | 348 kts | 217° |
| 2026-04-20 12:57 | 55.74422 | -4.25588 | 22324 ft | 348 kts | 217° |
| 2026-04-20 12:57 | 55.72440 | -4.28055 | 22326 ft | 348 kts | 217° |
| 2026-04-20 12:57 | 55.70461 | -4.30512 | 22314 ft | 347 kts | 217° |
| 2026-04-20 12:57 | 55.68505 | -4.32938 | 22323 ft | 348 kts | 217° |
| 2026-04-20 12:58 | 55.66521 | -4.35391 | 22324 ft | 348 kts | 217° |
| 2026-04-20 12:58 | 55.64538 | -4.37835 | 22321 ft | 348 kts | 217° |
| 2026-04-20 12:58 | 55.62549 | -4.40281 | 22320 ft | 348 kts | 217° |
| 2026-04-20 12:58 | 55.60560 | -4.42729 | 22320 ft | 348 kts | 217° |
| 2026-04-20 12:59 | 55.58576 | -4.45169 | 22316 ft | 348 kts | 217° |
| 2026-04-20 12:59 | 55.56584 | -4.47613 | 22299 ft | 348 kts | 218° |
| 2026-04-20 12:59 | 55.54594 | -4.50054 | 22306 ft | 349 kts | 218° |
| 2026-04-20 12:59 | 55.52598 | -4.52504 | 22306 ft | 350 kts | 218° |
| 2026-04-20 13:00 | 55.50598 | -4.54959 | 22304 ft | 350 kts | 218° |
| 2026-04-20 13:00 | 55.48597 | -4.57412 | 22304 ft | 351 kts | 218° |
| 2026-04-20 13:00 | 55.46589 | -4.59867 | 22310 ft | 351 kts | 218° |
| 2026-04-20 13:00 | 55.44582 | -4.62318 | 22314 ft | 351 kts | 218° |
| 2026-04-20 13:01 | 55.42570 | -4.64766 | 22299 ft | 352 kts | 217° |
| 2026-04-20 13:01 | 55.40555 | -4.67216 | 22028 ft | 350 kts | 217° |
| 2026-04-20 13:01 | 55.38594 | -4.69595 | 21646 ft | 345 kts | 217° |
| 2026-04-20 13:01 | 55.36623 | -4.71984 | 21228 ft | 343 kts | 217° |
| 2026-04-20 13:02 | 55.34663 | -4.74358 | 20806 ft | 341 kts | 217° |
| 2026-04-20 13:02 | 55.32718 | -4.76713 | 20393 ft | 339 kts | 217° |
| 2026-04-20 13:02 | 55.30730 | -4.78929 | 19985 ft | 339 kts | 209° |
| 2026-04-20 13:02 | 55.28624 | -4.80781 | 19578 ft | 337 kts | 208° |
| 2026-04-20 13:03 | 55.26526 | -4.82620 | 19173 ft | 336 kts | 208° |
| 2026-04-20 13:03 | 55.24441 | -4.84449 | 18772 ft | 335 kts | 208° |
| 2026-04-20 13:03 | 55.22356 | -4.86279 | 18350 ft | 334 kts | 208° |
| 2026-04-20 13:03 | 55.20288 | -4.88095 | 17947 ft | 332 kts | 208° |
| 2026-04-20 13:04 | 55.18234 | -4.89899 | 17565 ft | 329 kts | 208° |
| 2026-04-20 13:04 | 55.16192 | -4.91691 | 17187 ft | 327 kts | 208° |
| 2026-04-20 13:04 | 55.14168 | -4.93462 | 16806 ft | 325 kts | 207° |
| 2026-04-20 13:04 | 55.12151 | -4.95221 | 16442 ft | 323 kts | 207° |
| 2026-04-20 13:05 | 55.10149 | -4.96966 | 16074 ft | 321 kts | 207° |
| 2026-04-20 13:05 | 55.08158 | -4.98701 | 15707 ft | 320 kts | 207° |
| 2026-04-20 13:05 | 55.06171 | -5.00430 | 15351 ft | 318 kts | 207° |
| 2026-04-20 13:05 | 55.04192 | -5.02155 | 14982 ft | 318 kts | 207° |
| 2026-04-20 13:06 | 55.02216 | -5.03875 | 14621 ft | 317 kts | 207° |
| 2026-04-20 13:06 | 55.00242 | -5.05588 | 14261 ft | 316 kts | 207° |
| 2026-04-20 13:06 | 54.98272 | -5.07298 | 13876 ft | 315 kts | 207° |
| 2026-04-20 13:06 | 54.96316 | -5.08996 | 13499 ft | 313 kts | 207° |
| 2026-04-20 13:07 | 54.94374 | -5.10674 | 13135 ft | 311 kts | 207° |
| 2026-04-20 13:07 | 54.92440 | -5.12342 | 12762 ft | 309 kts | 207° |
| 2026-04-20 13:07 | 54.90543 | -5.14079 | 12392 ft | 307 kts | 214° |
| 2026-04-20 13:07 | 54.88934 | -5.16451 | 12020 ft | 303 kts | 229° |
| 2026-04-20 13:08 | 54.87759 | -5.19394 | 11660 ft | 299 kts | 244° |
| 2026-04-20 13:08 | 54.87016 | -5.22737 | 11310 ft | 296 kts | 253° |
| 2026-04-20 13:08 | 54.86378 | -5.26117 | 10934 ft | 294 kts | 253° |
| 2026-04-20 13:08 | 54.85733 | -5.29476 | 10560 ft | 292 kts | 253° |
| 2026-04-20 13:09 | 54.85088 | -5.32809 | 10181 ft | 291 kts | 252° |
| 2026-04-20 13:09 | 54.84446 | -5.36125 | 9764 ft | 289 kts | 252° |
| 2026-04-20 13:09 | 54.83808 | -5.39414 | 9388 ft | 286 kts | 252° |
| 2026-04-20 13:09 | 54.83175 | -5.42669 | 8987 ft | 284 kts | 252° |
| 2026-04-20 13:10 | 54.82543 | -5.45909 | 8591 ft | 281 kts | 252° |
| 2026-04-20 13:10 | 54.81918 | -5.49102 | 8207 ft | 279 kts | 252° |
| 2026-04-20 13:10 | 54.81298 | -5.52275 | 7787 ft | 277 kts | 252° |
| 2026-04-20 13:10 | 54.80675 | -5.55457 | 7155 ft | 283 kts | 251° |
| 2026-04-20 13:11 | 54.80042 | -5.58686 | 6595 ft | 281 kts | 251° |
| 2026-04-20 13:11 | 54.79422 | -5.61840 | 6311 ft | 272 kts | 250° |
| 2026-04-20 13:11 | 54.78810 | -5.64946 | 5747 ft | 273 kts | 251° |
| 2026-04-20 13:11 | 54.78195 | -5.68069 | 5184 ft | 274 kts | 251° |
| 2026-04-20 13:12 | 54.77581 | -5.71192 | 4731 ft | 272 kts | 251° |
| 2026-04-20 13:12 | 54.76975 | -5.74260 | 4383 ft | 266 kts | 251° |
| 2026-04-20 13:12 | 54.76387 | -5.77242 | 4115 ft | 257 kts | 251° |
| 2026-04-20 13:12 | 54.75818 | -5.80129 | 3855 ft | 250 kts | 251° |
| 2026-04-20 13:13 | 54.75262 | -5.82927 | 3637 ft | 241 kts | 250° |
| 2026-04-20 13:13 | 54.74723 | -5.85616 | 3472 ft | 232 kts | 250° |
| 2026-04-20 13:13 | 54.74214 | -5.88168 | 3312 ft | 223 kts | 251° |
| 2026-04-20 13:13 | 54.73717 | -5.90660 | 3158 ft | 216 kts | 251° |
| 2026-04-20 13:14 | 54.73236 | -5.93074 | 2999 ft | 209 kts | 250° |
| 2026-04-20 13:14 | 54.72720 | -5.95391 | 2842 ft | 203 kts | 246° |
| 2026-04-20 13:14 | 54.72156 | -5.97605 | 2675 ft | 199 kts | 245° |
| 2026-04-20 13:14 | 54.71584 | -5.99769 | 2570 ft | 196 kts | 244° |
| 2026-04-20 13:15 | 54.71014 | -6.01912 | 2496 ft | 195 kts | 245° |
| 2026-04-20 13:15 | 54.70455 | -6.04008 | 2288 ft | 191 kts | 245° |
| 2026-04-20 13:15 | 54.69909 | -6.06053 | 2037 ft | 183 kts | 245° |
| 2026-04-20 13:15 | 54.69393 | -6.07984 | 1787 ft | 172 kts | 245° |
| 2026-04-20 13:16 | 54.68905 | -6.09808 | 1559 ft | 161 kts | 245° |
| 2026-04-20 13:16 | 54.68459 | -6.11475 | 1330 ft | 147 kts | 245° |
| 2026-04-20 13:16 | 54.68039 | -6.13042 | 1124 ft | 140 kts | 246° |
| 2026-04-20 13:16 | 54.67634 | -6.14554 | 944 ft | 138 kts | 247° |
| 2026-04-20 13:17 | 54.67229 | -6.16050 | 749 ft | 137 kts | 247° |
| 2026-04-20 13:17 | 54.66835 | -6.17518 | 586 ft | 133 kts | 248° |
| 2026-04-20 13:17 | 54.66452 | -6.18961 | 394 ft | 131 kts | 248° |
| 2026-04-20 13:17 | 54.66075 | -6.20370 | 274 ft | 121 kts | 245° |
| 2026-04-20 13:18 | 54.65773 | -6.21503 | 274 ft | 78 kts | 245° |
| 2026-04-20 13:18 | 54.65645 | -6.21973 | 275 ft | 30 kts | 245° |
| 2026-04-20 13:18 | 54.65559 | -6.22292 | 274 ft | 29 kts | 245° |
| 2026-04-20 13:18 | 54.65483 | -6.22572 | 272 ft | 15 kts | 247° |
| 2026-04-20 13:19 | 54.65524 | -6.22712 | 272 ft | 14 kts | 338° |
| 2026-04-20 13:19 | 54.65622 | -6.22766 | 272 ft | 15 kts | 341° |
| 2026-04-20 13:19 | 54.65715 | -6.22784 | 274 ft | 13 kts | 26° |
| 2026-04-20 13:19 | 54.65744 | -6.22639 | 272 ft | 14 kts | 87° |
| 2026-04-20 13:20 | 54.65755 | -6.22465 | 272 ft | 15 kts | 83° |
| 2026-04-20 13:20 | 54.65768 | -6.22277 | 272 ft | 13 kts | 83° |
| 2026-04-20 13:20 | 54.65787 | -6.22120 | 272 ft | 14 kts | 69° |
| 2026-04-20 13:20 | 54.65830 | -6.21959 | 275 ft | 15 kts | 64° |
| 2026-04-20 13:21 | 54.65878 | -6.21783 | 272 ft | 17 kts | 65° |
| 2026-04-20 13:21 | 54.65929 | -6.21592 | 274 ft | 18 kts | 65° |
| 2026-04-20 13:21 | 54.65976 | -6.21421 | 273 ft | 14 kts | 65° |
| 2026-04-20 13:21 | 54.66011 | -6.21286 | 272 ft | 11 kts | 65° |
| 2026-04-20 13:22 | 54.66055 | -6.21209 | 272 ft | 8 kts | 359° |
| 2026-04-20 13:22 | 54.66101 | -6.21241 | 276 ft | 6 kts | 335° |
| 2026-04-20 13:22 | 54.66138 | -6.21272 | 272 ft | 6 kts | 335° |
| 2026-04-20 13:22 | 54.66164 | -6.21303 | 272 ft | 3 kts | 296° |
| 2026-04-20 13:23 | 54.66160 | -6.21331 | 272 ft | 3 kts | 253° |
| 2026-04-20 13:23 | 54.66152 | -6.21359 | 275 ft | 2 kts | 240° |
| 2026-04-20 13:23 | 54.66147 | -6.21375 | 275 ft | 1 kts | 243° |
| 2026-04-20 13:23 | 54.66145 | -6.21381 | 274 ft | 1 kts | 243° |
| 2026-04-20 13:24 | 54.66144 | -6.21387 | 274 ft | 0 kts | 244° |